Time;durP1;ratioP1;P1;durP2;ratioP2;P2;SDS_P1;SDS_P2;PMS_P1;PMS_P2;Temp;Humidity;BMP_temperature;BMP_pressure;BME280_temperature;BME280_humidity;BME280_pressure;Samples;Min_cycle;Max_cycle;Signal;HPM_P1;HPM_P2
2021/05/24 00:03:39;;;;;;;6.15;2.70;;;;;;;10.30;83.58;100620.53;2713863;87;22224;-64
2021/05/24 00:07:40;;;;;;;2.98;2.33;;;;;;;10.30;84.14;100613.89;2713431;87;21176;-63
2021/05/24 00:11:42;;;;;;;4.17;2.30;;;;;;;10.37;84.57;100620.42;2711157;87;21141;-63
2021/05/24 00:15:49;;;;;;;3.75;2.22;;;;;;;10.45;84.73;100617.72;2711021;87;21116;-63
2021/05/24 00:19:50;;;;;;;2.83;2.62;;;;;;;10.51;84.77;100614.58;2710962;87;21095;-63
2021/05/24 00:23:52;;;;;;;2.90;2.40;;;;;;;10.59;84.52;100609.50;2710988;87;21082;-63
2021/05/24 00:27:54;;;;;;;2.80;2.00;;;;;;;10.68;84.17;100611.94;2710717;87;21104;-64
2021/05/24 00:31:56;;;;;;;3.67;2.25;;;;;;;10.74;83.79;100605.30;2710637;87;21126;-65
2021/05/24 00:35:57;;;;;;;3.00;2.35;;;;;;;10.77;83.28;100597.94;2710165;87;21137;-65
2021/05/24 00:39:59;;;;;;;3.10;2.47;;;;;;;10.79;82.88;100593.81;2710572;87;21550;-64
2021/05/24 00:44:01;;;;;;;4.25;2.75;;;;;;;10.74;82.76;100588.01;2710490;87;21136;-64
2021/05/24 00:48:04;;;;;;;6.78;2.42;;;;;;;10.68;82.83;100591.52;2710261;87;21137;-65
2021/05/24 00:52:06;;;;;;;3.45;2.70;;;;;;;10.61;82.86;100591.64;2710379;87;21144;-65
2021/05/24 00:56:09;;;;;;;4.00;2.47;;;;;;;10.56;83.25;100580.02;2710188;87;21154;-65
2021/05/24 01:00:36;;;;;;;4.08;3.00;;;;;;;10.62;83.21;100581.36;2710187;87;21112;-65
2021/05/24 01:04:37;;;;;;;2.62;2.42;;;;;;;10.69;82.68;100575.92;2710191;87;21591;-65
2021/05/24 01:08:39;;;;;;;4.35;3.00;;;;;;;10.77;81.99;100565.15;2709962;87;21065;-65
2021/05/24 01:12:41;;;;;;;4.67;2.95;;;;;;;10.76;80.82;100559.47;2710233;87;21157;-65
2021/05/24 01:16:50;;;;;;;4.92;3.27;;;;;;;10.71;80.18;100555.36;2710464;87;21152;-63
2021/05/24 01:20:52;;;;;;;3.95;3.27;;;;;;;10.56;79.82;100561.87;2710667;87;21088;-63
2021/05/24 01:24:54;;;;;;;3.77;3.40;;;;;;;10.38;79.97;100555.64;2710408;87;21105;-63
2021/05/24 01:28:56;;;;;;;9.50;4.72;;;;;;;10.18;80.78;100558.98;2710583;87;21105;-64
2021/05/24 01:32:58;;;;;;;7.58;4.45;;;;;;;9.86;82.48;100552.47;2710429;87;21176;-63
2021/05/24 01:37:02;;;;;;;6.10;3.45;;;;;;;9.59;83.51;100550.91;2710541;87;21609;-64
2021/05/24 01:41:05;;;;;;;4.20;3.42;;;;;;;9.36;84.43;100548.59;2710630;87;21089;-64
2021/05/24 01:45:09;;;;;;;4.65;3.12;;;;;;;9.17;85.08;100543.79;2710470;87;21732;-64
2021/05/24 01:49:11;;;;;;;5.83;3.45;;;;;;;9.00;85.50;100540.03;2710318;87;21077;-63
2021/05/24 01:53:13;;;;;;;3.83;3.15;;;;;;;8.84;86.72;100544.73;2710715;87;21637;-64
2021/05/24 01:57:15;;;;;;;3.85;3.55;;;;;;;8.77;87.75;100546.13;2710058;87;21132;-62
2021/05/24 02:01:16;;;;;;;5.58;3.67;;;;;;;8.74;88.15;100545.86;2710325;87;21140;-63
2021/05/24 02:05:20;;;;;;;3.72;3.08;;;;;;;8.74;88.67;100542.37;2710199;87;21116;-62
2021/05/24 02:09:21;;;;;;;6.67;3.35;;;;;;;8.73;88.56;100542.84;2710139;87;21586;-63
2021/05/24 02:13:23;;;;;;;4.50;3.20;;;;;;;8.69;88.85;100542.69;2710282;87;21101;-63
2021/05/24 02:17:25;;;;;;;6.47;2.62;;;;;;;8.66;88.80;100543.77;2710085;87;21172;-64
2021/05/24 02:21:27;;;;;;;6.40;3.92;;;;;;;8.63;88.61;100541.30;2710419;87;21120;-64
2021/05/24 02:25:29;;;;;;;2.67;2.08;;;;;;;8.60;89.15;100537.55;2710607;87;21089;-63
2021/05/24 02:29:31;;;;;;;3.22;2.98;;;;;;;8.60;89.48;100532.23;2710507;87;21112;-63
2021/05/24 02:33:32;;;;;;;5.58;2.87;;;;;;;8.59;89.42;100533.20;2710585;87;21116;-64
2021/05/24 02:37:35;;;;;;;4.12;3.22;;;;;;;8.59;89.13;100540.32;2710470;87;21144;-64
2021/05/24 02:41:38;;;;;;;4.42;2.62;;;;;;;8.51;88.81;100539.52;2710174;87;21148;-64
2021/05/24 02:45:40;;;;;;;3.77;2.62;;;;;;;8.40;88.77;100541.06;2710270;87;21108;-64
2021/05/24 02:49:44;;;;;;;3.67;3.12;;;;;;;8.35;89.38;100548.49;2710535;87;21045;-65
2021/05/24 02:53:45;;;;;;;6.67;2.83;;;;;;;8.33;89.71;100534.50;2710647;87;21149;-65
2021/05/24 02:57:47;;;;;;;3.33;2.98;;;;;;;8.32;89.88;100542.55;2710345;87;21116;-65
2021/05/24 03:01:49;;;;;;;4.53;2.80;;;;;;;8.31;90.20;100539.06;2710767;87;21634;-64
2021/05/24 03:05:52;;;;;;;4.47;2.90;;;;;;;8.32;90.00;100534.12;2710445;87;21084;-65
2021/05/24 03:09:54;;;;;;;3.77;3.10;;;;;;;8.24;89.81;100526.70;2710173;87;21112;-63
2021/05/24 03:13:56;;;;;;;4.17;3.60;;;;;;;8.24;90.08;100533.79;2691228;88;21116;-63
2021/05/24 03:17:58;;;;;;;5.20;4.00;;;;;;;8.26;90.64;100516.84;2691103;88;21096;-62
2021/05/24 03:22:01;;;;;;;4.50;3.22;;;;;;;8.35;91.03;100519.34;2691388;88;21642;-63
2021/05/24 03:26:04;;;;;;;7.55;4.85;;;;;;;8.44;90.86;100523.98;2760442;86;21648;-62
2021/05/24 03:30:09;;;;;;;7.28;5.15;;;;;;;8.55;90.91;100515.81;2760370;86;21091;-62
2021/05/24 03:34:12;;;;;;;6.90;4.30;;;;;;;8.60;90.75;100519.48;2760230;86;21130;-62
2021/05/24 03:38:13;;;;;;;7.67;4.25;;;;;;;8.73;91.26;100520.29;2760218;86;21115;-62
2021/05/24 03:42:15;;;;;;;5.35;3.98;;;;;;;8.88;91.25;100517.52;2760381;86;21400;-63
2021/05/24 03:46:17;;;;;;;4.70;4.28;;;;;;;9.06;91.04;100519.35;2760425;86;21095;-62
2021/05/24 03:50:20;;;;;;;5.67;4.75;;;;;;;9.28;90.85;100526.59;2760284;86;21131;-63
2021/05/24 03:54:21;;;;;;;5.65;4.20;;;;;;;9.54;90.45;100524.69;2760511;86;21106;-63
2021/05/24 03:58:23;;;;;;;7.00;4.30;;;;;;;9.86;90.14;100538.72;2760299;86;21131;-63
2021/05/24 04:02:25;;;;;;;5.30;4.83;;;;;;;10.06;88.44;100545.67;2760531;84;21106;-62
2021/05/24 04:06:27;;;;;;;9.25;7.70;;;;;;;10.38;88.90;100550.82;2760580;86;21627;-64
2021/05/24 04:10:35;;;;;;;6.30;5.70;;;;;;;10.68;88.16;100554.27;2756537;85;21111;-64
2021/05/24 04:14:35;;;;;;;13.13;5.00;;;;;;;11.33;89.44;100558.09;2744393;86;21697;-64
2021/05/24 04:18:42;;;;;;;6.75;4.97;;;;;;;12.46;87.75;100550.62;2744549;86;21613;-65
2021/05/24 04:22:41;;;;;;;4.53;3.22;;;;;;;13.66;84.97;100563.77;2744285;86;21143;-64
2021/05/24 04:26:48;;;;;;;3.77;3.47;;;;;;;14.77;80.64;100563.38;2744965;86;21075;-63
2021/05/24 04:30:50;;;;;;;3.17;2.90;;;;;;;15.70;76.70;100568.30;2745123;86;21139;-63
2021/05/24 04:34:53;;;;;;;10.23;3.47;;;;;;;16.29;72.92;100563.80;2745104;86;22313;-65
2021/05/24 04:38:55;;;;;;;5.90;3.67;;;;;;;16.75;71.04;100565.45;2745329;86;21083;-64
2021/05/24 04:42:58;;;;;;;9.58;5.47;;;;;;;17.56;68.91;100568.62;2746220;86;21103;-64
2021/05/24 04:46:59;;;;;;;7.72;6.97;;;;;;;18.28;67.47;100564.52;2746089;86;21088;-64
2021/05/24 04:51:04;;;;;;;7.40;4.45;;;;;;;18.58;65.81;100573.39;2746450;86;21126;-64
2021/05/24 04:55:10;;;;;;;3.75;2.67;;;;;;;18.95;63.96;100567.38;2746425;86;21099;-65
2021/05/24 04:59:12;;;;;;;5.70;2.83;;;;;;;19.33;62.72;100556.45;2746822;86;21068;-65
2021/05/24 05:03:14;;;;;;;5.28;2.52;;;;;;;19.75;61.54;100552.47;2747483;86;21115;-65
2021/05/24 05:07:16;;;;;;;5.05;3.10;;;;;;;20.21;61.72;100543.52;2747423;86;21116;-64
2021/05/24 05:11:18;;;;;;;4.50;3.27;;;;;;;20.53;60.28;100547.43;2749225;86;21114;-65
2021/05/24 05:15:22;;;;;;;5.08;3.10;;;;;;;20.80;58.75;100541.07;2752699;86;21111;-65
2021/05/24 05:19:24;;;;;;;3.47;2.47;;;;;;;20.66;59.76;100554.89;2752640;86;21110;-65
2021/05/24 05:23:25;;;;;;;4.12;2.25;;;;;;;21.01;58.71;100552.98;2752815;86;21111;-65
2021/05/24 05:27:27;;;;;;;4.17;1.98;;;;;;;20.87;58.03;100564.14;2731578;86;21067;-65
2021/05/24 05:31:29;;;;;;;2.30;1.87;;;;;;;21.05;58.83;100560.54;2752880;86;21103;-64
2021/05/24 05:35:32;;;;;;;1.67;1.40;;;;;;;21.21;56.04;100549.19;2752756;86;21147;-64
2021/05/24 05:39:34;;;;;;;4.97;1.77;;;;;;;21.28;57.40;100555.50;2752940;86;21082;-65
2021/05/24 05:43:36;;;;;;;2.50;1.65;;;;;;;21.25;56.19;100559.45;2753050;86;21131;-65
2021/05/24 05:47:40;;;;;;;3.52;1.77;;;;;;;20.87;56.22;100559.59;2752950;86;21084;-65
2021/05/24 05:51:42;;;;;;;6.08;1.77;;;;;;;21.01;57.82;100562.45;2752899;86;21119;-64
2021/05/24 05:55:44;;;;;;;4.97;1.85;;;;;;;21.29;56.79;100563.13;2752980;86;21730;-65
2021/05/24 05:59:46;;;;;;;4.92;1.75;;;;;;;21.53;56.40;100563.30;2753131;86;21087;-65
2021/05/24 06:03:48;;;;;;;4.17;1.70;;;;;;;21.72;56.27;100570.50;2753320;86;21095;-65
2021/05/24 06:07:50;;;;;;;2.30;1.22;;;;;;;21.72;54.87;100567.80;2753214;86;21099;-65
2021/05/24 06:11:52;;;;;;;4.97;1.27;;;;;;;21.20;55.95;100559.16;2749298;86;22411;-65
2021/05/24 06:15:55;;;;;;;5.92;1.42;;;;;;;20.61;56.74;100574.35;2743446;86;21076;-65
2021/05/24 06:19:57;;;;;;;1.75;1.27;;;;;;;20.29;57.42;100585.83;2743577;86;21110;-64
2021/05/24 06:23:59;;;;;;;1.77;1.20;;;;;;;20.08;58.31;100586.00;2744089;86;21187;-64
2021/05/24 06:28:02;;;;;;;2.83;1.32;;;;;;;19.95;59.25;100581.72;2743889;86;21115;-65
2021/05/24 06:32:04;;;;;;;2.58;1.90;;;;;;;19.93;60.60;100602.66;2743790;86;21088;-65
2021/05/24 06:36:07;;;;;;;2.92;1.40;;;;;;;19.80;61.19;100601.88;2743539;86;21198;-65
2021/05/24 06:40:11;;;;;;;2.75;1.50;;;;;;;19.72;62.01;100586.57;2743676;86;21071;-65
2021/05/24 06:44:13;;;;;;;2.52;1.10;;;;;;;19.67;61.56;100591.14;2743811;86;21072;-65
2021/05/24 06:48:14;;;;;;;2.27;1.82;;;;;;;19.52;61.96;100576.23;2743479;86;21076;-65
2021/05/24 06:52:16;;;;;;;5.22;1.90;;;;;;;19.39;61.64;100588.11;2743656;86;21126;-65
2021/05/24 06:56:18;;;;;;;4.37;1.65;;;;;;;19.31;61.81;100596.25;2743415;86;21116;-65
2021/05/24 07:00:20;;;;;;;4.42;2.20;;;;;;;19.16;62.17;100595.63;2743189;86;21131;-64
2021/05/24 07:04:24;;;;;;;5.28;2.50;;;;;;;18.89;61.95;100595.52;2743256;86;21183;-65
2021/05/24 07:08:26;;;;;;;5.78;2.08;;;;;;;18.70;63.71;100581.42;2742813;86;21099;-65
2021/05/24 07:12:28;;;;;;;3.05;2.35;;;;;;;18.76;64.38;100583.95;2742960;86;21577;-65
2021/05/24 07:16:31;;;;;;;15.88;6.65;;;;;;;18.95;65.15;100587.59;2743014;86;21069;-64
2021/05/24 07:20:34;;;;;;;8.13;3.77;;;;;;;19.06;64.37;100582.36;2743203;86;21028;-65
2021/05/24 07:24:35;;;;;;;4.25;3.83;;;;;;;19.05;64.91;100582.52;2743372;86;21080;-64
2021/05/24 07:28:37;;;;;;;15.30;3.10;;;;;;;19.00;65.03;100588.45;2743367;86;21097;-64
2021/05/24 07:32:39;;;;;;;5.42;2.60;;;;;;;18.94;64.04;100578.31;2743035;86;22325;-64
2021/05/24 07:36:42;;;;;;;5.90;5.10;;;;;;;18.75;64.59;100580.92;2743266;86;21088;-65
2021/05/24 07:40:43;;;;;;;7.28;6.33;;;;;;;18.77;65.75;100578.88;2743142;86;21109;-65
2021/05/24 07:44:45;;;;;;;5.95;2.05;;;;;;;18.68;64.35;100564.10;2743104;86;21648;-64
2021/05/24 07:48:47;;;;;;;4.25;1.55;;;;;;;18.70;65.33;100568.81;2743160;86;21123;-64
2021/05/24 07:52:49;;;;;;;3.90;1.25;;;;;;;18.67;64.72;100564.27;2742626;86;21103;-64
2021/05/24 07:56:53;;;;;;;12.73;8.35;;;;;;;18.57;64.78;100552.33;2742975;86;21055;-64
2021/05/24 08:00:54;;;;;;;3.87;3.15;;;;;;;18.66;65.93;100558.02;2743296;86;21087;-64
2021/05/24 08:04:57;;;;;;;6.67;2.70;;;;;;;18.81;66.25;100551.92;2743453;86;21684;-64
2021/05/24 08:08:58;;;;;;;3.12;1.80;;;;;;;18.84;66.06;100548.87;2743182;86;21628;-64
2021/05/24 08:13:00;;;;;;;2.90;1.52;;;;;;;18.83;66.27;100540.45;2748278;86;21107;-64
2021/05/24 08:17:02;;;;;;;7.78;2.40;;;;;;;18.72;64.05;100536.28;2752259;86;21131;-64
2021/05/24 08:21:05;;;;;;;2.40;1.42;;;;;;;18.61;64.04;100536.67;2752299;86;21127;-64
2021/05/24 08:25:10;;;;;;;2.37;1.40;;;;;;;18.50;65.19;100528.45;2752265;86;21068;-64
2021/05/24 08:29:12;;;;;;;3.67;1.53;;;;;;;18.84;65.89;100542.14;2752492;86;21127;-64
2021/05/24 08:33:14;;;;;;;2.37;1.30;;;;;;;18.84;65.89;100542.14;2752238;86;21692;-64
2021/05/24 08:37:17;;;;;;;5.17;1.67;;;;;;;18.98;66.08;100541.45;2752316;86;21087;-64
2021/05/24 08:41:19;;;;;;;2.02;1.55;;;;;;;19.12;66.91;100529.08;2752110;86;21067;-64
2021/05/24 08:45:22;;;;;;;3.47;1.10;;;;;;;19.12;64.66;100526.91;2752210;86;21111;-64
2021/05/24 08:49:23;;;;;;;1.05;0.72;;;;;;;19.20;63.20;100528.20;2751810;86;21039;-64
2021/05/24 08:53:27;;;;;;;1.70;1.05;;;;;;;19.21;63.73;100519.61;2751456;86;21107;-64
2021/05/24 08:57:29;;;;;;;2.58;0.90;;;;;;;19.19;62.70;100521.13;2752468;86;21139;-64
2021/05/24 09:01:31;;;;;;;4.70;0.95;;;;;;;19.29;61.44;100521.42;2752406;86;21079;-64
2021/05/24 09:05:34;;;;;;;2.85;1.30;;;;;;;19.30;61.27;100519.88;2752424;86;21158;-64
2021/05/24 09:09:36;;;;;;;3.95;2.08;;;;;;;19.23;60.51;100497.35;2752048;86;21059;-64
2021/05/24 09:13:38;;;;;;;1.32;1.05;;;;;;;19.20;60.42;100497.19;2746494;86;21131;-64
2021/05/24 09:17:53;;;;;;;1.87;0.70;;;;;;;19.28;60.18;100502.22;2718896;86;21103;-64
2021/05/24 09:22:01;;;;;;;1.42;1.10;;;;;;;19.36;58.56;100493.57;2740176;86;21474;-64
2021/05/24 09:26:13;;;;;;;4.97;2.05;;;;;;;19.48;57.90;100492.64;2743323;86;21068;-64
2021/05/24 09:30:15;;;;;;;1.82;1.22;;;;;;;19.46;57.91;100481.69;2742920;86;21096;-64
2021/05/24 09:34:22;;;;;;;2.80;1.37;;;;;;;19.44;58.44;100481.86;2743036;86;21142;-64
2021/05/24 09:38:29;;;;;;;1.40;0.88;;;;;;;19.53;58.44;100482.14;2743263;86;21088;-64
2021/05/24 09:42:47;;;;;;;1.50;1.00;;;;;;;19.64;59.06;100473.28;2742339;86;21752;-64
2021/05/24 09:46:50;;;;;;;3.30;1.37;;;;;;;19.67;57.20;100472.95;2743485;86;21123;-64
2021/05/24 09:50:55;;;;;;;1.67;1.00;;;;;;;19.65;55.89;100464.16;2743254;86;21083;-64
2021/05/24 09:55:02;;;;;;;0.70;0.50;;;;;;;19.72;57.26;100463.78;2718785;86;21383;-64
2021/05/24 09:59:13;;;;;;;2.33;0.95;;;;;;;19.73;57.08;100445.72;2740031;86;21138;-64
2021/05/24 10:03:15;;;;;;;1.70;1.07;;;;;;;19.84;56.97;100447.46;2742806;86;21377;-64
2021/05/24 10:07:19;;;;;;;3.77;1.40;;;;;;;19.95;56.55;100435.44;2743432;86;21111;-65
2021/05/24 10:11:21;;;;;;;2.52;0.98;;;;;;;20.05;57.27;100434.31;2743620;86;21131;-65
2021/05/24 10:15:24;;;;;;;3.42;1.62;;;;;;;20.25;57.20;100431.92;2702629;86;21086;-64
2021/05/24 10:19:27;;;;;;;1.25;0.57;;;;;;;20.37;54.88;100430.41;2702303;88;21177;-64
2021/05/24 10:23:30;;;;;;;5.15;2.85;;;;;;;20.35;54.34;100427.06;2702649;88;21105;-64
2021/05/24 10:27:33;;;;;;;3.20;1.00;;;;;;;20.47;54.83;100427.95;2702617;88;21158;-64
2021/05/24 10:31:35;;;;;;;1.70;0.88;;;;;;;20.59;53.62;100422.38;2702593;88;21105;-64
2021/05/24 10:35:45;;;;;;;1.40;0.82;;;;;;;20.63;53.84;100407.45;2702562;87;21122;-64
2021/05/24 10:40:02;;;;;;;1.15;0.50;;;;;;;20.52;53.22;100405.25;2702612;88;21094;-64
2021/05/24 10:44:08;;;;;;;6.47;2.07;;;;;;;20.41;52.92;100391.19;2702358;88;21073;-64
2021/05/24 10:48:19;;;;;;;2.80;1.85;;;;;;;20.34;51.80;100382.66;2702505;88;21143;-64
2021/05/24 10:52:21;;;;;;;1.42;1.00;;;;;;;20.38;52.76;100386.16;2702250;88;21070;-64
2021/05/24 10:56:23;;;;;;;1.20;0.68;;;;;;;20.53;52.92;100384.78;2702476;88;21094;-64
2021/05/24 11:00:26;;;;;;;2.75;0.93;;;;;;;20.60;50.89;100370.53;2702808;88;21043;-64
2021/05/24 11:04:54;;;;;;;1.45;0.80;;;;;;;20.51;51.94;100373.33;2702970;88;21110;-64
2021/05/24 11:09:05;;;;;;;2.22;1.07;;;;;;;20.49;53.11;100379.44;2702348;88;21122;-64
2021/05/24 11:13:18;;;;;;;1.70;1.42;;;;;;;20.52;52.54;100366.08;2702355;86;21078;-64
2021/05/24 11:17:20;;;;;;;5.87;1.05;;;;;;;20.62;52.63;100357.13;2702675;88;21098;-65
2021/05/24 11:21:26;;;;;;;3.17;1.10;;;;;;;20.81;55.13;100350.82;2702839;88;21086;-64
2021/05/24 11:29:52;;;;;;;1.93;0.70;;;;;;;20.65;51.14;100334.31;2702845;88;21113;-64
2021/05/24 11:33:57;;;;;;;48.80;7.78;;;;;;;20.53;51.28;100332.09;2703021;88;21181;-64
2021/05/24 11:37:58;;;;;;;3.08;0.90;;;;;;;20.55;51.58;100321.11;2702674;88;21086;-64
2021/05/24 11:42:11;;;;;;;0.93;0.85;;;;;;;20.44;50.62;100310.78;2702839;88;21599;-64
2021/05/24 11:46:17;;;;;;;1.20;0.93;;;;;;;20.52;50.72;100303.41;2702503;88;21082;-64
2021/05/24 11:50:19;;;;;;;2.22;0.53;;;;;;;20.75;51.35;100288.05;2702602;88;21105;-64
2021/05/24 11:54:26;;;;;;;2.33;0.82;;;;;;;20.77;50.47;100275.17;2702773;88;21097;-64
2021/05/24 11:58:28;;;;;;;1.02;0.28;;;;;;;20.84;50.49;100262.61;2702879;88;21611;-64
2021/05/24 12:02:30;;;;;;;3.02;0.88;;;;;;;20.85;50.72;100262.08;2702571;88;21089;-64
2021/05/24 12:06:48;;;;;;;1.22;0.75;;;;;;;20.91;50.10;100247.27;2702486;88;21102;-64
2021/05/24 12:11:01;;;;;;;0.65;0.45;;;;;;;20.82;50.37;100248.42;2702041;88;21074;-64
2021/05/24 12:15:14;;;;;;;1.47;0.65;;;;;;;20.93;52.30;100239.80;2732783;86;21087;-64
2021/05/24 12:19:28;;;;;;;2.58;0.50;;;;;;;21.01;50.02;100233.41;2744095;86;21127;-64
2021/05/24 12:23:30;;;;;;;0.82;0.53;;;;;;;20.94;50.12;100230.66;2744044;86;21044;-64
2021/05/24 12:27:32;;;;;;;14.60;2.02;;;;;;;20.89;49.12;100228.21;2744013;86;21076;-64
2021/05/24 12:31:34;;;;;;;3.10;1.07;;;;;;;20.87;50.12;100212.70;2744144;86;21111;-64
2021/05/24 12:35:40;;;;;;;1.10;0.82;;;;;;;20.97;52.57;100209.16;2744450;86;21123;-64
2021/05/24 12:39:47;;;;;;;1.10;0.70;;;;;;;21.13;51.88;100206.66;2743965;86;21100;-64
2021/05/24 12:43:55;;;;;;;1.57;0.60;;;;;;;21.40;51.45;100196.00;2744338;86;21087;-64
2021/05/24 12:48:16;;;;;;;3.98;0.93;;;;;;;21.58;49.17;100177.05;2744143;86;21135;-64
2021/05/24 12:52:18;;;;;;;1.82;0.57;;;;;;;21.76;49.68;100169.78;2744268;86;21068;-64
2021/05/24 12:56:21;;;;;;;7.03;0.42;;;;;;;22.05;46.98;100160.49;2744273;86;21124;-64
2021/05/24 13:00:23;;;;;;;5.28;0.93;;;;;;;22.15;45.91;100168.22;2744283;86;21083;-65
2021/05/24 13:04:25;;;;;;;5.50;1.07;;;;;;;22.07;46.74;100164.33;2757683;85;21688;-65
2021/05/24 13:08:27;;;;;;;7.30;1.05;;;;;;;22.07;48.33;100163.83;2783326;84;21097;-65
2021/05/24 13:12:31;;;;;;;7.47;1.77;;;;;;;22.15;47.35;100163.30;2819962;84;21105;-66
2021/05/24 13:16:38;;;;;;;1.90;0.70;;;;;;;22.20;46.35;100157.59;2820352;84;21077;-65
2021/05/24 13:29:25;;;;;;;1.90;0.82;;;;;;;22.28;47.10;100159.27;2811368;84;21093;-64
2021/05/24 13:33:42;;;;;;;4.05;1.12;;;;;;;22.25;48.16;100164.58;2809411;84;21144;-65
2021/05/24 13:37:44;;;;;;;2.98;1.12;;;;;;;22.17;49.00;100154.45;2727122;87;21157;-65
2021/05/24 13:41:52;;;;;;;1.92;0.70;;;;;;;22.36;49.04;100124.38;2812353;84;21030;-63
2021/05/24 13:45:53;;;;;;;1.02;0.70;;;;;;;22.34;48.47;100118.33;2811515;84;21646;-66
2021/05/24 13:49:55;;;;;;;1.25;0.98;;;;;;;22.17;48.24;100130.08;2726804;87;21165;-65
2021/05/24 13:54:04;;;;;;;29.15;6.28;;;;;;;22.09;48.38;100121.11;2811676;84;21022;-64
2021/05/24 13:58:05;;;;;;;2.65;0.90;;;;;;;21.95;50.04;100122.13;2727029;87;21073;-65
2021/05/24 14:02:07;;;;;;;3.60;0.80;;;;;;;21.82;51.58;100121.58;2727151;87;21121;-63
2021/05/24 14:06:09;;;;;;;2.25;0.65;;;;;;;21.76;52.55;100115.10;2727611;87;21125;-62
2021/05/24 14:10:15;;;;;;;4.67;1.50;;;;;;;21.71;52.35;100120.30;2811723;84;21077;-64
2021/05/24 14:14:17;;;;;;;6.77;1.53;;;;;;;21.76;52.37;100110.22;2803522;83;21082;-64
2021/05/24 14:18:18;;;;;;;1.90;1.27;;;;;;;21.60;52.09;100104.61;2722559;87;21630;-63
2021/05/24 14:22:22;;;;;;;5.60;2.42;;;;;;;21.34;52.35;100101.63;2722461;87;21073;-63
2021/05/24 14:26:25;;;;;;;7.33;1.98;;;;;;;21.32;52.93;100095.58;2790972;85;21106;-64
2021/05/24 14:30:29;;;;;;;7.97;2.02;;;;;;;21.40;54.07;100080.52;2722650;87;21140;-63
2021/05/24 14:34:32;;;;;;;4.47;1.80;;;;;;;21.43;53.11;100070.32;2722781;87;21140;-63
2021/05/24 14:38:35;;;;;;;5.83;1.15;;;;;;;21.42;53.96;100069.50;2791220;85;21042;-63
2021/05/24 14:42:39;;;;;;;2.25;0.80;;;;;;;21.65;53.22;100058.88;2723075;87;21101;-63
2021/05/24 14:46:43;;;;;;;1.87;0.82;;;;;;;21.72;53.93;100048.89;2722778;87;21061;-64
2021/05/24 14:50:52;;;;;;;1.92;1.10;;;;;;;21.67;54.05;100036.50;2791151;85;21090;-64
2021/05/24 14:54:50;;;;;;;3.67;1.60;;;;;;;21.56;53.47;100021.66;2721445;87;21105;-63
2021/05/24 14:58:52;;;;;;;2.62;1.32;;;;;;;21.39;53.84;100009.01;2791306;85;21077;-63
2021/05/24 15:02:54;;;;;;;1.30;0.88;;;;;;;21.16;53.48;100015.60;2722713;87;21073;-63
2021/05/24 15:06:56;;;;;;;1.12;0.55;;;;;;;21.05;54.52;100009.44;2791567;85;21066;-63
2021/05/24 15:10:58;;;;;;;2.30;1.05;;;;;;;20.97;54.36;99992.34;2722833;87;21093;-63
2021/05/24 15:15:00;;;;;;;2.52;1.40;;;;;;;21.03;54.86;99983.94;2722799;87;21113;-63
2021/05/24 15:19:04;;;;;;;10.72;2.22;;;;;;;21.01;53.96;99970.30;2689724;86;21096;-63
2021/05/24 15:23:05;;;;;;;2.67;1.55;;;;;;;20.89;54.61;99967.34;2668751;88;21117;-66
2021/05/24 15:27:07;;;;;;;3.35;1.30;;;;;;;20.80;54.71;99970.23;2669593;88;21105;-63
2021/05/24 15:31:10;;;;;;;2.58;0.65;;;;;;;20.71;53.38;99955.17;2669591;88;21125;-63
2021/05/24 15:35:12;;;;;;;1.37;0.85;;;;;;;20.81;52.95;99935.41;2669601;88;21148;-62
2021/05/24 15:39:18;;;;;;;2.10;0.80;;;;;;;20.80;53.64;99939.16;2669453;89;21077;-63
2021/05/24 15:43:18;;;;;;;2.80;1.10;;;;;;;20.82;53.59;99929.47;2669150;89;21097;-63
2021/05/24 15:47:23;;;;;;;2.83;1.32;;;;;;;20.77;53.46;99934.63;2669437;89;21138;-64
2021/05/24 15:51:27;;;;;;;1.52;0.80;;;;;;;20.67;54.01;99931.80;2669569;89;21105;-63
2021/05/24 15:55:32;;;;;;;1.25;0.70;;;;;;;20.51;53.36;99926.73;2669527;88;21115;-62
2021/05/24 15:59:34;;;;;;;1.07;0.82;;;;;;;20.30;53.58;99918.19;2669747;88;21141;-63
2021/05/24 16:03:35;;;;;;;4.08;1.62;;;;;;;20.09;54.09;99908.63;2669424;89;21083;-62
2021/05/24 16:07:37;;;;;;;4.85;1.25;;;;;;;20.04;55.09;99894.87;2669422;89;21061;-62
2021/05/24 16:11:45;;;;;;;3.08;1.12;;;;;;;19.93;55.66;99887.34;2669032;89;21097;-62
2021/05/24 16:15:49;;;;;;;2.25;1.05;;;;;;;19.82;56.10;99883.29;2668984;87;21077;-63
2021/05/24 16:19:53;;;;;;;1.07;0.53;;;;;;;19.79;56.44;99898.53;2669337;88;21145;-62
2021/05/24 16:28:16;;;;;;;1.55;0.78;;;;;;;19.69;57.85;99918.58;2700503;88;21096;-63
2021/05/24 16:32:18;;;;;;;2.62;1.45;;;;;;;19.63;58.27;99919.86;2700527;88;21100;-63
2021/05/24 16:36:19;;;;;;;12.07;2.92;;;;;;;19.57;58.83;99911.20;2695948;87;21168;-63
2021/05/24 16:40:24;;;;;;;6.62;3.00;;;;;;;19.47;59.11;99904.30;2648651;89;21141;-62
2021/05/24 16:44:27;;;;;;;3.20;1.20;;;;;;;19.38;59.80;99902.74;2648350;89;21099;-62
2021/05/24 16:48:29;;;;;;;4.67;1.67;;;;;;;19.25;60.05;99888.09;2636459;89;21085;-62
2021/05/24 16:52:31;;;;;;;3.10;1.20;;;;;;;19.11;60.67;99893.87;2674373;88;21093;-62
2021/05/24 16:56:34;;;;;;;7.47;1.90;;;;;;;19.03;61.00;99883.23;2696401;87;21167;-63
2021/05/24 17:00:38;;;;;;;7.67;1.98;;;;;;;18.87;61.51;99888.82;2714005;87;21073;-63
2021/05/24 17:04:39;;;;;;;23.40;3.67;;;;;;;18.74;61.83;99898.94;2714073;87;21113;-62
2021/05/24 17:08:41;;;;;;;5.22;1.42;;;;;;;18.64;61.98;99896.54;2713956;87;21116;-62
2021/05/24 17:12:43;;;;;;;7.10;3.35;;;;;;;18.50;62.50;99876.70;2714038;87;21094;-62
2021/05/24 17:16:48;;;;;;;2.75;0.88;;;;;;;18.45;62.66;99868.32;2713917;87;21121;-62
2021/05/24 17:20:50;;;;;;;3.27;1.12;;;;;;;18.37;62.69;99871.45;2714442;87;21133;-62
2021/05/24 17:24:51;;;;;;;5.75;2.50;;;;;;;18.32;62.93;99869.84;2714365;87;21113;-62
2021/05/24 17:28:54;;;;;;;37.30;6.90;;;;;;;18.29;63.32;99879.64;2714271;87;21105;-62
2021/05/24 17:32:58;;;;;;;10.85;2.52;;;;;;;18.25;63.36;99871.59;2713506;87;28207;-62
2021/05/24 17:37:00;;;;;;;2.92;1.10;;;;;;;18.21;63.70;99864.91;2713540;87;21162;-63
2021/05/24 17:41:03;;;;;;;10.25;2.50;;;;;;;18.16;64.25;99860.61;2713726;87;21061;-62
2021/05/24 17:45:09;;;;;;;4.08;2.25;;;;;;;18.08;64.04;99871.80;2713337;86;21161;-63
2021/05/24 17:49:11;;;;;;;3.70;2.80;;;;;;;18.00;64.53;99890.68;2713318;87;21140;-62
2021/05/24 17:53:13;;;;;;;9.38;2.72;;;;;;;17.94;64.99;99896.28;2713682;87;21647;-62
2021/05/24 17:57:15;;;;;;;3.37;3.05;;;;;;;17.87;65.06;99904.77;2713372;87;21069;-62
2021/05/24 18:01:18;;;;;;;3.20;1.60;;;;;;;17.77;65.83;99907.72;2713544;87;21058;-63
2021/05/24 18:05:24;;;;;;;1.90;1.37;;;;;;;17.68;66.19;99915.52;2713652;87;21129;-62
2021/05/24 18:09:26;;;;;;;3.47;2.25;;;;;;;17.62;66.49;99929.70;2713049;87;21089;-63
2021/05/24 18:13:28;;;;;;;4.40;2.12;;;;;;;17.52;66.89;99933.48;2713147;87;21085;-62
2021/05/24 18:17:30;;;;;;;2.90;1.98;;;;;;;17.49;67.15;99931.16;2723629;87;21165;-62
2021/05/24 18:21:32;;;;;;;3.70;1.60;;;;;;;17.45;67.54;99944.61;2724753;87;22299;-62
2021/05/24 18:25:36;;;;;;;4.25;1.35;;;;;;;17.44;67.77;99937.56;2725027;87;21053;-63
2021/05/24 18:29:38;;;;;;;16.05;6.67;;;;;;;17.42;68.20;99936.91;2724945;87;21097;-62
2021/05/24 18:33:40;;;;;;;6.15;3.22;;;;;;;17.38;68.70;99945.84;2725024;87;21167;-62
2021/05/24 18:37:46;;;;;;;8.60;4.53;;;;;;;17.32;69.07;99939.84;2723998;86;21128;-62
2021/05/24 18:41:47;;;;;;;13.05;7.03;;;;;;;17.27;69.31;99946.27;2724495;87;21109;-62
2021/05/24 18:45:53;;;;;;;8.28;5.65;;;;;;;17.24;69.80;99946.10;2724196;87;21069;-61
2021/05/24 18:50:03;;;;;;;16.97;8.05;;;;;;;17.22;70.02;99947.31;2724323;87;21049;-61
2021/05/24 18:53:59;;;;;;;17.75;9.00;;;;;;;17.17;70.28;99941.12;2723818;87;22186;-62
2021/05/24 18:58:02;;;;;;;19.52;11.78;;;;;;;17.13;70.83;99938.47;2724265;87;21096;-62
2021/05/24 19:02:09;;;;;;;16.97;9.75;;;;;;;17.06;71.07;99942.36;2724127;87;21125;-62
2021/05/24 19:06:11;;;;;;;10.03;6.92;;;;;;;17.02;71.36;99931.64;2724124;87;21619;-62
2021/05/24 19:10:14;;;;;;;5.13;3.50;;;;;;;16.94;72.02;99944.58;2723896;87;21642;-62
2021/05/24 19:14:15;;;;;;;4.37;2.25;;;;;;;16.88;72.53;99951.98;2724306;87;21152;-62